sensor_id;sensor_type;location;lat;lon;timestamp;temperature;humidity
74940;HTU21D;63505;45.226;37.908;2023-03-04T00:01:17;3.50;63.79
74940;HTU21D;63505;45.226;37.908;2023-03-04T00:03:43;3.50;63.79
74940;HTU21D;63505;45.226;37.908;2023-03-04T00:06:09;3.43;63.82
74940;HTU21D;63505;45.226;37.908;2023-03-04T00:08:35;3.36;63.94
74940;HTU21D;63505;45.226;37.908;2023-03-04T00:11:01;3.32;64.05
74940;HTU21D;63505;45.226;37.908;2023-03-04T00:13:26;3.34;64.10
74940;HTU21D;63505;45.226;37.908;2023-03-04T00:15:52;3.38;64.08
74940;HTU21D;63505;45.226;37.908;2023-03-04T00:18:18;3.35;64.05
74940;HTU21D;63505;45.226;37.908;2023-03-04T00:20:46;3.36;64.03
74940;HTU21D;63505;45.226;37.908;2023-03-04T00:23:12;3.33;64.09
74940;HTU21D;63505;45.226;37.908;2023-03-04T00:25:37;3.32;64.28
74940;HTU21D;63505;45.226;37.908;2023-03-04T00:28:03;3.36;64.30
74940;HTU21D;63505;45.226;37.908;2023-03-04T00:30:30;3.39;64.30
74940;HTU21D;63505;45.226;37.908;2023-03-04T00:32:56;3.44;64.29
74940;HTU21D;63505;45.226;37.908;2023-03-04T00:35:22;3.45;64.20
74940;HTU21D;63505;45.226;37.908;2023-03-04T00:37:48;3.50;64.25
74940;HTU21D;63505;45.226;37.908;2023-03-04T00:40:15;3.54;64.18
74940;HTU21D;63505;45.226;37.908;2023-03-04T00:42:41;3.56;64.21
74940;HTU21D;63505;45.226;37.908;2023-03-04T00:45:08;3.58;64.27
74940;HTU21D;63505;45.226;37.908;2023-03-04T00:47:34;3.61;64.29
74940;HTU21D;63505;45.226;37.908;2023-03-04T00:50:00;3.64;64.46
74940;HTU21D;63505;45.226;37.908;2023-03-04T00:52:26;3.69;64.67
74940;HTU21D;63505;45.226;37.908;2023-03-04T00:54:52;3.74;64.68
74940;HTU21D;63505;45.226;37.908;2023-03-04T00:57:18;3.72;64.92
74940;HTU21D;63505;45.226;37.908;2023-03-04T00:59:43;3.72;65.14
74940;HTU21D;63505;45.226;37.908;2023-03-04T01:02:11;3.75;65.11
74940;HTU21D;63505;45.226;37.908;2023-03-04T01:04:37;3.76;65.11
74940;HTU21D;63505;45.226;37.908;2023-03-04T01:07:04;3.76;65.14
74940;HTU21D;63505;45.226;37.908;2023-03-04T01:09:29;3.76;65.25
74940;HTU21D;63505;45.226;37.908;2023-03-04T01:11:56;3.76;65.30
74940;HTU21D;63505;45.226;37.908;2023-03-04T01:14:22;3.78;65.36
74940;HTU21D;63505;45.226;37.908;2023-03-04T01:16:48;3.80;65.32
74940;HTU21D;63505;45.226;37.908;2023-03-04T01:19:15;3.82;65.23
74940;HTU21D;63505;45.226;37.908;2023-03-04T01:21:41;3.85;65.21
74940;HTU21D;63505;45.226;37.908;2023-03-04T01:24:07;3.84;65.33
74940;HTU21D;63505;45.226;37.908;2023-03-04T01:26:33;3.87;65.35
74940;HTU21D;63505;45.226;37.908;2023-03-04T01:28:58;3.87;65.42
74940;HTU21D;63505;45.226;37.908;2023-03-04T01:31:24;3.89;65.37
74940;HTU21D;63505;45.226;37.908;2023-03-04T01:33:51;3.92;65.33
74940;HTU21D;63505;45.226;37.908;2023-03-04T01:36:17;3.93;65.37
74940;HTU21D;63505;45.226;37.908;2023-03-04T01:38:42;3.92;65.46
74940;HTU21D;63505;45.226;37.908;2023-03-04T01:41:10;3.94;65.59
74940;HTU21D;63505;45.226;37.908;2023-03-04T01:43:37;3.98;65.64
74940;HTU21D;63505;45.226;37.908;2023-03-04T01:46:03;4.02;65.59
74940;HTU21D;63505;45.226;37.908;2023-03-04T01:48:32;4.05;65.59
74940;HTU21D;63505;45.226;37.908;2023-03-04T01:51:03;4.05;65.59
74940;HTU21D;63505;45.226;37.908;2023-03-04T01:53:31;4.07;65.65
74940;HTU21D;63505;45.226;37.908;2023-03-04T01:56:01;4.08;65.72
74940;HTU21D;63505;45.226;37.908;2023-03-04T01:58:31;4.09;65.76
74940;HTU21D;63505;45.226;37.908;2023-03-04T02:00:57;4.12;65.77
74940;HTU21D;63505;45.226;37.908;2023-03-04T02:03:24;4.14;65.74
74940;HTU21D;63505;45.226;37.908;2023-03-04T02:05:51;4.15;65.82
74940;HTU21D;63505;45.226;37.908;2023-03-04T02:08:20;4.16;65.88
74940;HTU21D;63505;45.226;37.908;2023-03-04T02:10:46;4.17;65.87
74940;HTU21D;63505;45.226;37.908;2023-03-04T02:13:13;4.19;65.95
74940;HTU21D;63505;45.226;37.908;2023-03-04T02:15:41;4.21;65.88
74940;HTU21D;63505;45.226;37.908;2023-03-04T02:18:19;4.21;65.97
74940;HTU21D;63505;45.226;37.908;2023-03-04T02:26:25;4.42;65.66
74940;HTU21D;63505;45.226;37.908;2023-03-04T02:28:54;4.46;65.54
74940;HTU21D;63505;45.226;37.908;2023-03-04T02:31:31;4.47;65.50
74940;HTU21D;63505;45.226;37.908;2023-03-04T02:34:00;4.48;65.50
74940;HTU21D;63505;45.226;37.908;2023-03-04T02:36:27;4.48;65.53
74940;HTU21D;63505;45.226;37.908;2023-03-04T02:38:54;4.48;65.54
74940;HTU21D;63505;45.226;37.908;2023-03-04T02:41:23;4.45;65.65
74940;HTU21D;63505;45.226;37.908;2023-03-04T02:43:52;4.43;65.72
74940;HTU21D;63505;45.226;37.908;2023-03-04T02:46:19;4.44;65.78
74940;HTU21D;63505;45.226;37.908;2023-03-04T02:48:46;4.45;65.84
74940;HTU21D;63505;45.226;37.908;2023-03-04T02:51:11;4.48;65.83
74940;HTU21D;63505;45.226;37.908;2023-03-04T02:53:37;4.49;65.82
74940;HTU21D;63505;45.226;37.908;2023-03-04T02:56:04;4.51;65.88
74940;HTU21D;63505;45.226;37.908;2023-03-04T02:58:34;4.51;66.00
74940;HTU21D;63505;45.226;37.908;2023-03-04T03:01:00;4.56;66.07
74940;HTU21D;63505;45.226;37.908;2023-03-04T03:03:26;4.57;66.18
74940;HTU21D;63505;45.226;37.908;2023-03-04T03:05:53;4.58;66.40
74940;HTU21D;63505;45.226;37.908;2023-03-04T03:08:19;4.57;66.77
74940;HTU21D;63505;45.226;37.908;2023-03-04T03:10:45;4.58;67.01
74940;HTU21D;63505;45.226;37.908;2023-03-04T03:13:11;4.60;67.13
74940;HTU21D;63505;45.226;37.908;2023-03-04T03:15:37;4.62;67.27
74940;HTU21D;63505;45.226;37.908;2023-03-04T03:18:08;4.66;67.33
74940;HTU21D;63505;45.226;37.908;2023-03-04T03:20:35;4.68;67.39
74940;HTU21D;63505;45.226;37.908;2023-03-04T03:23:02;4.71;67.71
74940;HTU21D;63505;45.226;37.908;2023-03-04T03:25:29;4.73;67.99
74940;HTU21D;63505;45.226;37.908;2023-03-04T03:27:55;4.77;68.36
74940;HTU21D;63505;45.226;37.908;2023-03-04T03:30:21;4.83;68.53
74940;HTU21D;63505;45.226;37.908;2023-03-04T03:32:47;4.89;68.65
74940;HTU21D;63505;45.226;37.908;2023-03-04T03:35:13;4.92;68.78
74940;HTU21D;63505;45.226;37.908;2023-03-04T03:37:40;4.95;68.85
74940;HTU21D;63505;45.226;37.908;2023-03-04T03:40:06;4.98;69.01
74940;HTU21D;63505;45.226;37.908;2023-03-04T03:42:32;5.01;69.25
74940;HTU21D;63505;45.226;37.908;2023-03-04T03:44:58;5.05;69.46
74940;HTU21D;63505;45.226;37.908;2023-03-04T03:47:23;5.05;69.78
74940;HTU21D;63505;45.226;37.908;2023-03-04T03:49:49;5.08;70.15
74940;HTU21D;63505;45.226;37.908;2023-03-04T03:52:15;5.07;70.46
74940;HTU21D;63505;45.226;37.908;2023-03-04T03:54:41;5.06;70.82
74940;HTU21D;63505;45.226;37.908;2023-03-04T03:57:07;5.06;71.19
74940;HTU21D;63505;45.226;37.908;2023-03-04T03:59:33;5.07;71.51
74940;HTU21D;63505;45.226;37.908;2023-03-04T04:01:59;5.06;72.31
74940;HTU21D;63505;45.226;37.908;2023-03-04T04:04:25;5.06;72.81
74940;HTU21D;63505;45.226;37.908;2023-03-04T04:06:51;5.02;73.38
74940;HTU21D;63505;45.226;37.908;2023-03-04T04:09:17;5.00;74.49
74940;HTU21D;63505;45.226;37.908;2023-03-04T04:11:43;4.97;74.89
74940;HTU21D;63505;45.226;37.908;2023-03-04T04:14:12;4.96;74.99
74940;HTU21D;63505;45.226;37.908;2023-03-04T04:16:38;4.97;74.93
74940;HTU21D;63505;45.226;37.908;2023-03-04T04:19:04;4.98;74.83
74940;HTU21D;63505;45.226;37.908;2023-03-04T04:21:30;4.98;74.73
74940;HTU21D;63505;45.226;37.908;2023-03-04T04:23:56;4.96;74.81
74940;HTU21D;63505;45.226;37.908;2023-03-04T04:26:21;4.94;75.28
74940;HTU21D;63505;45.226;37.908;2023-03-04T04:28:47;4.95;75.44
74940;HTU21D;63505;45.226;37.908;2023-03-04T04:31:13;4.93;75.60
74940;HTU21D;63505;45.226;37.908;2023-03-04T04:33:39;4.94;75.78
74940;HTU21D;63505;45.226;37.908;2023-03-04T04:36:05;4.91;75.79
74940;HTU21D;63505;45.226;37.908;2023-03-04T04:38:31;4.92;75.88
74940;HTU21D;63505;45.226;37.908;2023-03-04T04:40:58;4.91;76.05
74940;HTU21D;63505;45.226;37.908;2023-03-04T04:43:24;4.91;76.34
74940;HTU21D;63505;45.226;37.908;2023-03-04T04:45:50;4.93;76.53
74940;HTU21D;63505;45.226;37.908;2023-03-04T04:48:16;4.94;76.53
74940;HTU21D;63505;45.226;37.908;2023-03-04T04:50:42;4.95;76.50
74940;HTU21D;63505;45.226;37.908;2023-03-04T04:53:11;4.96;76.57
74940;HTU21D;63505;45.226;37.908;2023-03-04T04:55:38;4.98;76.61
74940;HTU21D;63505;45.226;37.908;2023-03-04T04:58:05;4.97;76.73
74940;HTU21D;63505;45.226;37.908;2023-03-04T05:00:31;4.97;76.84
74940;HTU21D;63505;45.226;37.908;2023-03-04T05:02:57;4.98;77.01
74940;HTU21D;63505;45.226;37.908;2023-03-04T05:05:23;5.00;77.31
74940;HTU21D;63505;45.226;37.908;2023-03-04T05:07:49;5.01;77.27
74940;HTU21D;63505;45.226;37.908;2023-03-04T05:10:15;5.03;77.37
74940;HTU21D;63505;45.226;37.908;2023-03-04T05:12:43;5.06;77.44
74940;HTU21D;63505;45.226;37.908;2023-03-04T05:15:09;5.10;77.43
74940;HTU21D;63505;45.226;37.908;2023-03-04T05:17:36;5.12;77.37
74940;HTU21D;63505;45.226;37.908;2023-03-04T05:20:02;5.16;77.44
74940;HTU21D;63505;45.226;37.908;2023-03-04T05:22:28;5.20;77.38
74940;HTU21D;63505;45.226;37.908;2023-03-04T05:24:54;5.26;77.33
74940;HTU21D;63505;45.226;37.908;2023-03-04T05:27:21;5.31;77.27
74940;HTU21D;63505;45.226;37.908;2023-03-04T05:29:47;5.33;77.44
74940;HTU21D;63505;45.226;37.908;2023-03-04T05:32:13;5.37;77.45
74940;HTU21D;63505;45.226;37.908;2023-03-04T05:34:39;5.40;77.47
74940;HTU21D;63505;45.226;37.908;2023-03-04T05:37:05;5.45;77.48
74940;HTU21D;63505;45.226;37.908;2023-03-04T05:39:31;5.47;77.43
74940;HTU21D;63505;45.226;37.908;2023-03-04T05:41:56;5.49;77.41
74940;HTU21D;63505;45.226;37.908;2023-03-04T05:44:22;5.51;77.43
74940;HTU21D;63505;45.226;37.908;2023-03-04T05:46:48;5.53;77.35
74940;HTU21D;63505;45.226;37.908;2023-03-04T05:49:14;5.56;77.35
74940;HTU21D;63505;45.226;37.908;2023-03-04T05:51:40;5.63;77.31
74940;HTU21D;63505;45.226;37.908;2023-03-04T05:54:06;5.65;77.49
74940;HTU21D;63505;45.226;37.908;2023-03-04T05:56:32;5.70;77.68
74940;HTU21D;63505;45.226;37.908;2023-03-04T05:58:58;5.74;77.66
74940;HTU21D;63505;45.226;37.908;2023-03-04T06:01:25;5.77;77.86
74940;HTU21D;63505;45.226;37.908;2023-03-04T06:03:51;5.83;77.82
74940;HTU21D;63505;45.226;37.908;2023-03-04T06:06:16;5.89;77.80
74940;HTU21D;63505;45.226;37.908;2023-03-04T06:08:42;5.92;77.84
74940;HTU21D;63505;45.226;37.908;2023-03-04T06:11:08;5.97;77.92
74940;HTU21D;63505;45.226;37.908;2023-03-04T06:13:34;6.07;77.91
74940;HTU21D;63505;45.226;37.908;2023-03-04T06:16:00;6.11;77.83
74940;HTU21D;63505;45.226;37.908;2023-03-04T06:18:27;6.17;78.00
74940;HTU21D;63505;45.226;37.908;2023-03-04T06:20:58;6.29;77.95
74940;HTU21D;63505;45.226;37.908;2023-03-04T06:23:24;6.41;77.76
74940;HTU21D;63505;45.226;37.908;2023-03-04T06:25:55;6.54;77.58
74940;HTU21D;63505;45.226;37.908;2023-03-04T06:28:22;6.59;77.39
74940;HTU21D;63505;45.226;37.908;2023-03-04T06:30:51;6.63;77.37
74940;HTU21D;63505;45.226;37.908;2023-03-04T06:33:17;6.70;77.24
74940;HTU21D;63505;45.226;37.908;2023-03-04T06:35:42;6.79;77.04
74940;HTU21D;63505;45.226;37.908;2023-03-04T06:38:09;6.84;76.92
74940;HTU21D;63505;45.226;37.908;2023-03-04T06:40:34;6.89;76.84
74940;HTU21D;63505;45.226;37.908;2023-03-04T06:43:00;6.99;76.65
74940;HTU21D;63505;45.226;37.908;2023-03-04T06:45:26;7.14;76.41
74940;HTU21D;63505;45.226;37.908;2023-03-04T06:47:52;7.30;76.14
74940;HTU21D;63505;45.226;37.908;2023-03-04T06:50:18;7.43;75.74
74940;HTU21D;63505;45.226;37.908;2023-03-04T06:52:44;7.46;75.48
74940;HTU21D;63505;45.226;37.908;2023-03-04T06:55:09;7.48;75.11
74940;HTU21D;63505;45.226;37.908;2023-03-04T06:57:38;7.55;74.86
74940;HTU21D;63505;45.226;37.908;2023-03-04T07:00:04;7.65;74.66
74940;HTU21D;63505;45.226;37.908;2023-03-04T07:02:30;7.75;74.32
74940;HTU21D;63505;45.226;37.908;2023-03-04T07:04:56;7.88;74.11
74940;HTU21D;63505;45.226;37.908;2023-03-04T07:07:22;8.06;73.80
74940;HTU21D;63505;45.226;37.908;2023-03-04T07:09:50;8.23;73.43
74940;HTU21D;63505;45.226;37.908;2023-03-04T07:12:16;8.34;73.11
74940;HTU21D;63505;45.226;37.908;2023-03-04T07:14:42;8.32;72.17
74940;HTU21D;63505;45.226;37.908;2023-03-04T07:17:08;8.35;71.77
74940;HTU21D;63505;45.226;37.908;2023-03-04T07:19:33;8.46;71.42
74940;HTU21D;63505;45.226;37.908;2023-03-04T07:21:59;8.62;70.71
74940;HTU21D;63505;45.226;37.908;2023-03-04T07:24:25;8.81;70.13
74940;HTU21D;63505;45.226;37.908;2023-03-04T07:26:51;8.89;69.26
74940;HTU21D;63505;45.226;37.908;2023-03-04T07:29:17;9.03;68.70
74940;HTU21D;63505;45.226;37.908;2023-03-04T07:31:43;9.21;68.10
74940;HTU21D;63505;45.226;37.908;2023-03-04T07:34:11;9.42;68.01
74940;HTU21D;63505;45.226;37.908;2023-03-04T07:36:38;9.55;67.19
74940;HTU21D;63505;45.226;37.908;2023-03-04T07:39:05;9.80;66.99
74940;HTU21D;63505;45.226;37.908;2023-03-04T07:41:31;10.01;66.60
74940;HTU21D;63505;45.226;37.908;2023-03-04T07:44:01;10.12;65.61
74940;HTU21D;63505;45.226;37.908;2023-03-04T07:46:27;10.11;64.71
74940;HTU21D;63505;45.226;37.908;2023-03-04T07:48:54;10.14;64.47
74940;HTU21D;63505;45.226;37.908;2023-03-04T07:51:23;10.27;64.19
74940;HTU21D;63505;45.226;37.908;2023-03-04T07:53:52;10.30;63.44
74940;HTU21D;63505;45.226;37.908;2023-03-04T07:56:21;10.48;62.98
74940;HTU21D;63505;45.226;37.908;2023-03-04T07:58:48;10.65;62.77
74940;HTU21D;63505;45.226;37.908;2023-03-04T08:01:20;10.85;62.53
74940;HTU21D;63505;45.226;37.908;2023-03-04T08:03:46;10.93;61.60
74940;HTU21D;63505;45.226;37.908;2023-03-04T08:06:16;11.03;60.68
74940;HTU21D;63505;45.226;37.908;2023-03-04T08:08:42;11.15;61.00
74940;HTU21D;63505;45.226;37.908;2023-03-04T08:11:13;11.30;60.83
74940;HTU21D;63505;45.226;37.908;2023-03-04T08:13:40;11.34;59.98
74940;HTU21D;63505;45.226;37.908;2023-03-04T08:16:06;11.38;59.83
74940;HTU21D;63505;45.226;37.908;2023-03-04T08:18:32;11.70;59.75
74940;HTU21D;63505;45.226;37.908;2023-03-04T08:20:58;11.70;57.75
74940;HTU21D;63505;45.226;37.908;2023-03-04T08:23:24;11.59;58.16
74940;HTU21D;63505;45.226;37.908;2023-03-04T08:25:50;11.61;58.09
74940;HTU21D;63505;45.226;37.908;2023-03-04T08:28:16;11.59;57.89
74940;HTU21D;63505;45.226;37.908;2023-03-04T08:30:42;11.29;57.67
74940;HTU21D;63505;45.226;37.908;2023-03-04T08:33:09;11.14;58.41
74940;HTU21D;63505;45.226;37.908;2023-03-04T08:35:37;11.28;58.74
74940;HTU21D;63505;45.226;37.908;2023-03-04T08:38:04;11.47;58.60
74940;HTU21D;63505;45.226;37.908;2023-03-04T08:40:30;11.38;57.58
74940;HTU21D;63505;45.226;37.908;2023-03-04T08:42:56;11.34;57.77
74940;HTU21D;63505;45.226;37.908;2023-03-04T08:45:21;11.64;57.21
74940;HTU21D;63505;45.226;37.908;2023-03-04T08:47:48;11.75;57.35
74940;HTU21D;63505;45.226;37.908;2023-03-04T08:50:15;11.91;57.20
74940;HTU21D;63505;45.226;37.908;2023-03-04T08:52:41;11.94;56.71
74940;HTU21D;63505;45.226;37.908;2023-03-04T08:55:07;11.93;56.90
74940;HTU21D;63505;45.226;37.908;2023-03-04T08:57:33;12.08;56.87
74940;HTU21D;63505;45.226;37.908;2023-03-04T08:59:59;12.22;55.73
74940;HTU21D;63505;45.226;37.908;2023-03-04T09:02:25;12.23;54.92
74940;HTU21D;63505;45.226;37.908;2023-03-04T09:04:50;12.40;54.39
74940;HTU21D;63505;45.226;37.908;2023-03-04T09:07:17;12.36;53.94
74940;HTU21D;63505;45.226;37.908;2023-03-04T09:09:42;12.42;53.97
74940;HTU21D;63505;45.226;37.908;2023-03-04T09:12:08;12.57;54.13
74940;HTU21D;63505;45.226;37.908;2023-03-04T09:14:34;12.38;54.00
74940;HTU21D;63505;45.226;37.908;2023-03-04T09:17:03;12.23;54.61
74940;HTU21D;63505;45.226;37.908;2023-03-04T09:19:29;12.38;54.81
74940;HTU21D;63505;45.226;37.908;2023-03-04T09:21:55;12.64;53.94
74940;HTU21D;63505;45.226;37.908;2023-03-04T09:24:22;12.77;53.14
74940;HTU21D;63505;45.226;37.908;2023-03-04T09:26:51;12.91;53.64
74940;HTU21D;63505;45.226;37.908;2023-03-04T09:29:18;12.81;53.78
74940;HTU21D;63505;45.226;37.908;2023-03-04T09:31:44;12.60;53.26
74940;HTU21D;63505;45.226;37.908;2023-03-04T09:34:10;12.34;53.33
74940;HTU21D;63505;45.226;37.908;2023-03-04T09:36:36;12.38;53.57
74940;HTU21D;63505;45.226;37.908;2023-03-04T09:39:03;12.33;53.49
74940;HTU21D;63505;45.226;37.908;2023-03-04T09:41:50;12.27;53.42
74940;HTU21D;63505;45.226;37.908;2023-03-04T09:44:40;12.60;53.41
74940;HTU21D;63505;45.226;37.908;2023-03-04T09:47:15;12.80;52.59
74940;HTU21D;63505;45.226;37.908;2023-03-04T09:49:44;13.12;51.88
74940;HTU21D;63505;45.226;37.908;2023-03-04T09:58:06;13.02;50.65
74940;HTU21D;63505;45.226;37.908;2023-03-04T10:03:58;13.03;50.43
74940;HTU21D;63505;45.226;37.908;2023-03-04T10:06:27;13.31;50.50
74940;HTU21D;63505;45.226;37.908;2023-03-04T10:09:15;13.36;50.63
74940;HTU21D;63505;45.226;37.908;2023-03-04T10:12:00;13.59;50.35
74940;HTU21D;63505;45.226;37.908;2023-03-04T10:14:39;13.67;49.67
74940;HTU21D;63505;45.226;37.908;2023-03-04T10:17:16;13.68;50.00
74940;HTU21D;63505;45.226;37.908;2023-03-04T10:22:47;14.00;49.43
74940;HTU21D;63505;45.226;37.908;2023-03-04T10:27:41;14.05;47.60
74940;HTU21D;63505;45.226;37.908;2023-03-04T10:30:35;14.10;47.95
74940;HTU21D;63505;45.226;37.908;2023-03-04T10:33:14;14.03;47.23
74940;HTU21D;63505;45.226;37.908;2023-03-04T10:35:44;14.13;47.80
74940;HTU21D;63505;45.226;37.908;2023-03-04T10:38:12;14.20;47.74
74940;HTU21D;63505;45.226;37.908;2023-03-04T10:40:39;14.15;47.79
74940;HTU21D;63505;45.226;37.908;2023-03-04T10:43:11;14.19;48.39
74940;HTU21D;63505;45.226;37.908;2023-03-04T10:45:38;14.42;48.18
74940;HTU21D;63505;45.226;37.908;2023-03-04T10:48:05;14.39;47.77
74940;HTU21D;63505;45.226;37.908;2023-03-04T10:50:31;14.34;48.05
74940;HTU21D;63505;45.226;37.908;2023-03-04T10:52:58;13.98;47.84
74940;HTU21D;63505;45.226;37.908;2023-03-04T10:55:29;13.93;48.60
74940;HTU21D;63505;45.226;37.908;2023-03-04T10:58:04;13.70;47.83
74940;HTU21D;63505;45.226;37.908;2023-03-04T11:00:37;13.96;48.61
74940;HTU21D;63505;45.226;37.908;2023-03-04T11:06:02;14.22;47.83
74940;HTU21D;63505;45.226;37.908;2023-03-04T11:08:29;13.78;47.43
74940;HTU21D;63505;45.226;37.908;2023-03-04T11:10:54;13.34;48.15
74940;HTU21D;63505;45.226;37.908;2023-03-04T11:13:22;13.18;48.80
74940;HTU21D;63505;45.226;37.908;2023-03-04T11:15:51;13.06;48.80
74940;HTU21D;63505;45.226;37.908;2023-03-04T11:21:06;13.24;49.00
74940;HTU21D;63505;45.226;37.908;2023-03-04T11:26:30;13.96;48.16
74940;HTU21D;63505;45.226;37.908;2023-03-04T11:29:04;13.78;47.73
74940;HTU21D;63505;45.226;37.908;2023-03-04T11:31:37;13.41;48.34
74940;HTU21D;63505;45.226;37.908;2023-03-04T11:34:14;13.35;48.90
74940;HTU21D;63505;45.226;37.908;2023-03-04T11:37:06;13.31;49.47
74940;HTU21D;63505;45.226;37.908;2023-03-04T11:39:40;13.06;49.79
74940;HTU21D;63505;45.226;37.908;2023-03-04T11:44:56;13.48;49.89
74940;HTU21D;63505;45.226;37.908;2023-03-04T11:47:49;13.54;49.98
74940;HTU21D;63505;45.226;37.908;2023-03-04T11:50:28;13.35;49.58
74940;HTU21D;63505;45.226;37.908;2023-03-04T11:53:25;13.62;49.98
74940;HTU21D;63505;45.226;37.908;2023-03-04T12:12:57;14.81;48.05
74940;HTU21D;63505;45.226;37.908;2023-03-04T12:29:10;15.66;44.81
74940;HTU21D;63505;45.226;37.908;2023-03-04T12:31:48;15.76;44.84
74940;HTU21D;63505;45.226;37.908;2023-03-04T12:34:41;15.91;44.16
74940;HTU21D;63505;45.226;37.908;2023-03-04T12:37:33;15.96;43.39
74940;HTU21D;63505;45.226;37.908;2023-03-04T12:44:05;15.65;41.36
74940;HTU21D;63505;45.226;37.908;2023-03-04T12:48:57;15.03;44.51
74940;HTU21D;63505;45.226;37.908;2023-03-04T12:59:27;14.75;46.39
74940;HTU21D;63505;45.226;37.908;2023-03-04T13:10:17;14.45;48.91
74940;HTU21D;63505;45.226;37.908;2023-03-04T13:12:53;14.42;49.66
74940;HTU21D;63505;45.226;37.908;2023-03-04T13:17:49;14.70;49.41
74940;HTU21D;63505;45.226;37.908;2023-03-04T13:25:44;14.25;49.97
74940;HTU21D;63505;45.226;37.908;2023-03-04T13:43:27;13.10;55.44
74940;HTU21D;63505;45.226;37.908;2023-03-04T13:56:40;11.61;58.36
74940;HTU21D;63505;45.226;37.908;2023-03-04T14:01:55;11.25;59.22
74940;HTU21D;63505;45.226;37.908;2023-03-04T14:06:52;10.94;61.55
74940;HTU21D;63505;45.226;37.908;2023-03-04T14:09:27;10.74;62.42
74940;HTU21D;63505;45.226;37.908;2023-03-04T14:11:56;10.59;63.37
74940;HTU21D;63505;45.226;37.908;2023-03-04T14:14:26;10.52;63.66
74940;HTU21D;63505;45.226;37.908;2023-03-04T14:17:02;10.44;64.48
74940;HTU21D;63505;45.226;37.908;2023-03-04T14:19:31;10.38;64.93
74940;HTU21D;63505;45.226;37.908;2023-03-04T14:22:00;10.37;65.47
74940;HTU21D;63505;45.226;37.908;2023-03-04T14:24:26;10.34;65.39
74940;HTU21D;63505;45.226;37.908;2023-03-04T14:27:21;10.33;65.29
74940;HTU21D;63505;45.226;37.908;2023-03-04T14:29:57;10.31;65.67
74940;HTU21D;63505;45.226;37.908;2023-03-04T14:32:25;10.31;65.69
74940;HTU21D;63505;45.226;37.908;2023-03-04T14:35:05;10.34;65.72
74940;HTU21D;63505;45.226;37.908;2023-03-04T14:38:02;10.28;65.82
74940;HTU21D;63505;45.226;37.908;2023-03-04T14:40:39;10.21;65.97
74940;HTU21D;63505;45.226;37.908;2023-03-04T14:43:19;10.20;65.73
74940;HTU21D;63505;45.226;37.908;2023-03-04T14:45:57;10.08;66.46
74940;HTU21D;63505;45.226;37.908;2023-03-04T14:48:29;10.03;67.09
74940;HTU21D;63505;45.226;37.908;2023-03-04T14:50:57;9.97;67.23
74940;HTU21D;63505;45.226;37.908;2023-03-04T14:53:26;9.94;67.51
74940;HTU21D;63505;45.226;37.908;2023-03-04T14:56:04;9.88;67.79
74940;HTU21D;63505;45.226;37.908;2023-03-04T14:58:35;9.80;68.25
74940;HTU21D;63505;45.226;37.908;2023-03-04T15:04:01;9.70;68.60
74940;HTU21D;63505;45.226;37.908;2023-03-04T15:06:31;9.65;68.78
74940;HTU21D;63505;45.226;37.908;2023-03-04T15:09:02;9.62;68.96
74940;HTU21D;63505;45.226;37.908;2023-03-04T15:11:50;9.55;69.02
74940;HTU21D;63505;45.226;37.908;2023-03-04T15:14:45;9.46;69.23
74940;HTU21D;63505;45.226;37.908;2023-03-04T15:17:34;9.36;69.51
74940;HTU21D;63505;45.226;37.908;2023-03-04T15:22:33;9.20;70.27
74940;HTU21D;63505;45.226;37.908;2023-03-04T15:25:00;9.12;70.53
74940;HTU21D;63505;45.226;37.908;2023-03-04T15:27:27;9.05;70.77
74940;HTU21D;63505;45.226;37.908;2023-03-04T15:29:56;8.97;71.15
74940;HTU21D;63505;45.226;37.908;2023-03-04T15:32:24;8.94;71.32
74940;HTU21D;63505;45.226;37.908;2023-03-04T15:34:50;8.88;71.35
74940;HTU21D;63505;45.226;37.908;2023-03-04T15:37:27;8.78;71.52
74940;HTU21D;63505;45.226;37.908;2023-03-04T15:39:57;8.74;71.40
74940;HTU21D;63505;45.226;37.908;2023-03-04T15:42:24;8.67;71.62
74940;HTU21D;63505;45.226;37.908;2023-03-04T15:44:50;8.63;71.74
74940;HTU21D;63505;45.226;37.908;2023-03-04T15:47:16;8.57;71.74
74940;HTU21D;63505;45.226;37.908;2023-03-04T15:49:43;8.51;71.93
74940;HTU21D;63505;45.226;37.908;2023-03-04T15:52:17;8.45;72.19
74940;HTU21D;63505;45.226;37.908;2023-03-04T15:54:44;8.43;72.29
74940;HTU21D;63505;45.226;37.908;2023-03-04T15:57:20;8.38;72.39
74940;HTU21D;63505;45.226;37.908;2023-03-04T15:59:47;8.35;72.44
74940;HTU21D;63505;45.226;37.908;2023-03-04T16:02:24;8.31;72.68
74940;HTU21D;63505;45.226;37.908;2023-03-04T16:04:53;8.30;73.11
74940;HTU21D;63505;45.226;37.908;2023-03-04T16:07:24;8.30;73.12
74940;HTU21D;63505;45.226;37.908;2023-03-04T16:09:59;8.30;73.22
74940;HTU21D;63505;45.226;37.908;2023-03-04T16:12:27;8.30;73.27
74940;HTU21D;63505;45.226;37.908;2023-03-04T16:14:53;8.34;73.48
74940;HTU21D;63505;45.226;37.908;2023-03-04T16:17:19;8.41;73.89
74940;HTU21D;63505;45.226;37.908;2023-03-04T16:19:46;8.47;74.00
74940;HTU21D;63505;45.226;37.908;2023-03-04T16:22:18;8.58;74.22
74940;HTU21D;63505;45.226;37.908;2023-03-04T16:24:45;8.63;74.10
74940;HTU21D;63505;45.226;37.908;2023-03-04T16:27:15;8.72;74.02
74940;HTU21D;63505;45.226;37.908;2023-03-04T16:29:43;8.77;73.93
74940;HTU21D;63505;45.226;37.908;2023-03-04T16:32:10;8.80;74.03
74940;HTU21D;63505;45.226;37.908;2023-03-04T16:34:36;8.79;73.90
74940;HTU21D;63505;45.226;37.908;2023-03-04T16:37:06;8.79;73.86
74940;HTU21D;63505;45.226;37.908;2023-03-04T16:39:37;8.82;74.03
74940;HTU21D;63505;45.226;37.908;2023-03-04T16:42:04;8.86;74.19
74940;HTU21D;63505;45.226;37.908;2023-03-04T16:44:33;8.89;74.29
74940;HTU21D;63505;45.226;37.908;2023-03-04T16:46:59;8.90;74.31
74940;HTU21D;63505;45.226;37.908;2023-03-04T16:49:27;8.90;74.35
74940;HTU21D;63505;45.226;37.908;2023-03-04T16:51:55;8.91;74.32
74940;HTU21D;63505;45.226;37.908;2023-03-04T16:54:26;8.95;74.16
74940;HTU21D;63505;45.226;37.908;2023-03-04T16:56:53;8.97;74.43
74940;HTU21D;63505;45.226;37.908;2023-03-04T16:59:19;8.98;74.60
74940;HTU21D;63505;45.226;37.908;2023-03-04T17:01:45;9.01;74.57
74940;HTU21D;63505;45.226;37.908;2023-03-04T17:04:11;9.02;74.62
74940;HTU21D;63505;45.226;37.908;2023-03-04T17:06:37;9.04;74.64
74940;HTU21D;63505;45.226;37.908;2023-03-04T17:09:05;9.04;74.82
74940;HTU21D;63505;45.226;37.908;2023-03-04T17:11:31;9.05;74.89
74940;HTU21D;63505;45.226;37.908;2023-03-04T17:13:58;9.06;74.89
74940;HTU21D;63505;45.226;37.908;2023-03-04T17:16:24;9.05;74.98
74940;HTU21D;63505;45.226;37.908;2023-03-04T17:18:50;9.06;74.94
74940;HTU21D;63505;45.226;37.908;2023-03-04T17:21:19;9.06;74.92
74940;HTU21D;63505;45.226;37.908;2023-03-04T17:23:45;9.05;74.96
74940;HTU21D;63505;45.226;37.908;2023-03-04T17:26:12;9.06;74.90
74940;HTU21D;63505;45.226;37.908;2023-03-04T17:28:40;9.06;74.75